Terminal Aerodrome Forecast
Issued by NWS Charleston, WV

Current Version | Previous Version | Graphics & Text | Print | Product List | Glossary On
Versions: 1 2 3 4 5 6 7 8 9 10 11 12 13 14 15 16 17 18 19 20 21 22
000
FTUS41 KRLX 142341
TAFEKN
TAF
KEKN 142341Z 1500/1524 00000KT 4SM -RA BR SCT007 OVC015
     FM150200 34002KT 2SM -DZ BR OVC007
     FM151200 36003KT 4SM BR OVC010
     FM151400 01005KT P6SM OVC035
     FM151700 05005KT P6SM BKN050=

USA.gov is the U.S. government's official web portal to all federal, state and local government web resources and services.